sensor_id;sensor_type;location;lat;lon;timestamp;P1;durP1;ratioP1;P2;durP2;ratioP2
35777;SDS011;21899;42.662;23.316;2024-02-28T00:00:27;19.50;;;9.65;;
35777;SDS011;21899;42.662;23.316;2024-02-28T00:02:53;24.63;;;10.07;;
35777;SDS011;21899;42.662;23.316;2024-02-28T00:05:18;20.70;;;9.80;;
35777;SDS011;21899;42.662;23.316;2024-02-28T00:07:44;22.30;;;10.50;;
35777;SDS011;21899;42.662;23.316;2024-02-28T00:10:11;19.95;;;10.57;;
35777;SDS011;21899;42.662;23.316;2024-02-28T00:12:36;22.05;;;10.63;;
35777;SDS011;21899;42.662;23.316;2024-02-28T00:15:04;20.02;;;9.88;;
35777;SDS011;21899;42.662;23.316;2024-02-28T00:17:30;21.20;;;9.73;;
35777;SDS011;21899;42.662;23.316;2024-02-28T00:19:56;22.95;;;9.52;;
35777;SDS011;21899;42.662;23.316;2024-02-28T00:22:21;20.73;;;10.38;;
35777;SDS011;21899;42.662;23.316;2024-02-28T00:24:47;22.33;;;10.77;;
35777;SDS011;21899;42.662;23.316;2024-02-28T00:27:13;26.75;;;11.13;;
35777;SDS011;21899;42.662;23.316;2024-02-28T00:29:38;21.02;;;11.57;;
35777;SDS011;21899;42.662;23.316;2024-02-28T00:32:04;20.30;;;9.95;;
35777;SDS011;21899;42.662;23.316;2024-02-28T00:34:30;18.50;;;9.95;;
35777;SDS011;21899;42.662;23.316;2024-02-28T00:36:55;20.60;;;9.43;;
35777;SDS011;21899;42.662;23.316;2024-02-28T00:39:21;21.40;;;10.85;;
35777;SDS011;21899;42.662;23.316;2024-02-28T00:41:47;26.48;;;11.63;;
35777;SDS011;21899;42.662;23.316;2024-02-28T00:44:12;19.98;;;10.32;;
35777;SDS011;21899;42.662;23.316;2024-02-28T00:46:39;24.50;;;11.18;;
35777;SDS011;21899;42.662;23.316;2024-02-28T00:49:05;17.23;;;8.85;;
35777;SDS011;21899;42.662;23.316;2024-02-28T00:51:30;25.00;;;10.95;;
35777;SDS011;21899;42.662;23.316;2024-02-28T00:53:55;21.13;;;9.80;;
35777;SDS011;21899;42.662;23.316;2024-02-28T00:56:21;22.17;;;10.45;;
35777;SDS011;21899;42.662;23.316;2024-02-28T00:58:47;19.65;;;11.10;;
35777;SDS011;21899;42.662;23.316;2024-02-28T01:01:12;19.63;;;10.82;;
35777;SDS011;21899;42.662;23.316;2024-02-28T01:03:38;19.58;;;10.75;;
35777;SDS011;21899;42.662;23.316;2024-02-28T01:06:03;23.05;;;10.90;;
35777;SDS011;21899;42.662;23.316;2024-02-28T01:08:29;22.63;;;9.68;;
35777;SDS011;21899;42.662;23.316;2024-02-28T01:10:55;20.75;;;11.48;;
35777;SDS011;21899;42.662;23.316;2024-02-28T01:13:20;24.30;;;10.90;;
35777;SDS011;21899;42.662;23.316;2024-02-28T01:15:46;22.38;;;10.80;;
35777;SDS011;21899;42.662;23.316;2024-02-28T01:18:11;26.23;;;12.07;;
35777;SDS011;21899;42.662;23.316;2024-02-28T01:20:37;23.45;;;10.95;;
35777;SDS011;21899;42.662;23.316;2024-02-28T01:23:03;21.90;;;10.95;;
35777;SDS011;21899;42.662;23.316;2024-02-28T01:25:28;20.23;;;9.98;;
35777;SDS011;21899;42.662;23.316;2024-02-28T01:27:55;22.73;;;10.45;;
35777;SDS011;21899;42.662;23.316;2024-02-28T01:30:21;19.55;;;10.52;;
35777;SDS011;21899;42.662;23.316;2024-02-28T01:32:47;21.20;;;10.48;;
35777;SDS011;21899;42.662;23.316;2024-02-28T01:35:13;22.33;;;10.57;;
35777;SDS011;21899;42.662;23.316;2024-02-28T01:37:38;25.92;;;11.75;;
35777;SDS011;21899;42.662;23.316;2024-02-28T01:40:04;23.85;;;10.52;;
35777;SDS011;21899;42.662;23.316;2024-02-28T01:42:30;22.63;;;10.30;;
35777;SDS011;21899;42.662;23.316;2024-02-28T01:44:55;21.65;;;11.02;;
35777;SDS011;21899;42.662;23.316;2024-02-28T01:47:21;24.15;;;10.82;;
35777;SDS011;21899;42.662;23.316;2024-02-28T01:49:46;22.65;;;10.43;;
35777;SDS011;21899;42.662;23.316;2024-02-28T01:52:12;26.08;;;10.35;;
35777;SDS011;21899;42.662;23.316;2024-02-28T01:54:39;23.02;;;10.82;;
35777;SDS011;21899;42.662;23.316;2024-02-28T01:57:05;20.25;;;10.05;;
35777;SDS011;21899;42.662;23.316;2024-02-28T01:59:32;22.42;;;11.90;;
35777;SDS011;21899;42.662;23.316;2024-02-28T02:02:00;24.00;;;10.85;;
35777;SDS011;21899;42.662;23.316;2024-02-28T02:04:25;28.17;;;12.10;;
35777;SDS011;21899;42.662;23.316;2024-02-28T02:06:51;26.98;;;11.70;;
35777;SDS011;21899;42.662;23.316;2024-02-28T02:09:19;22.38;;;10.80;;
35777;SDS011;21899;42.662;23.316;2024-02-28T02:11:45;20.08;;;11.13;;
35777;SDS011;21899;42.662;23.316;2024-02-28T02:14:10;19.38;;;10.32;;
35777;SDS011;21899;42.662;23.316;2024-02-28T02:16:36;19.73;;;9.68;;
35777;SDS011;21899;42.662;23.316;2024-02-28T02:19:02;20.58;;;10.82;;
35777;SDS011;21899;42.662;23.316;2024-02-28T02:21:34;18.88;;;10.88;;
35777;SDS011;21899;42.662;23.316;2024-02-28T02:24:03;17.95;;;11.20;;
35777;SDS011;21899;42.662;23.316;2024-02-28T02:26:28;20.52;;;9.25;;
35777;SDS011;21899;42.662;23.316;2024-02-28T02:28:54;19.45;;;9.85;;
35777;SDS011;21899;42.662;23.316;2024-02-28T02:31:19;22.05;;;11.65;;
35777;SDS011;21899;42.662;23.316;2024-02-28T02:33:45;21.38;;;9.43;;
35777;SDS011;21899;42.662;23.316;2024-02-28T02:36:10;20.83;;;10.00;;
35777;SDS011;21899;42.662;23.316;2024-02-28T02:38:36;18.80;;;10.38;;
35777;SDS011;21899;42.662;23.316;2024-02-28T02:41:01;16.83;;;9.88;;
35777;SDS011;21899;42.662;23.316;2024-02-28T02:43:27;18.35;;;10.18;;
35777;SDS011;21899;42.662;23.316;2024-02-28T02:45:52;22.10;;;11.18;;
35777;SDS011;21899;42.662;23.316;2024-02-28T02:48:18;21.00;;;10.10;;
35777;SDS011;21899;42.662;23.316;2024-02-28T02:50:43;21.42;;;10.27;;
35777;SDS011;21899;42.662;23.316;2024-02-28T02:53:09;23.58;;;11.20;;
35777;SDS011;21899;42.662;23.316;2024-02-28T02:55:35;25.00;;;10.27;;
35777;SDS011;21899;42.662;23.316;2024-02-28T02:58:01;22.77;;;10.70;;
35777;SDS011;21899;42.662;23.316;2024-02-28T03:00:27;23.30;;;11.52;;
35777;SDS011;21899;42.662;23.316;2024-02-28T03:02:53;16.40;;;9.80;;
35777;SDS011;21899;42.662;23.316;2024-02-28T03:05:20;20.10;;;10.43;;
35777;SDS011;21899;42.662;23.316;2024-02-28T03:07:46;23.17;;;9.73;;
35777;SDS011;21899;42.662;23.316;2024-02-28T03:10:11;25.88;;;11.75;;
35777;SDS011;21899;42.662;23.316;2024-02-28T03:12:37;25.33;;;12.20;;
35777;SDS011;21899;42.662;23.316;2024-02-28T03:15:02;20.23;;;10.05;;
35777;SDS011;21899;42.662;23.316;2024-02-28T03:17:28;18.13;;;11.00;;
35777;SDS011;21899;42.662;23.316;2024-02-28T03:19:54;20.08;;;9.60;;
35777;SDS011;21899;42.662;23.316;2024-02-28T03:22:20;20.08;;;9.63;;
35777;SDS011;21899;42.662;23.316;2024-02-28T03:24:45;19.67;;;9.65;;
35777;SDS011;21899;42.662;23.316;2024-02-28T03:27:11;17.38;;;9.05;;
35777;SDS011;21899;42.662;23.316;2024-02-28T03:29:37;22.35;;;10.30;;
35777;SDS011;21899;42.662;23.316;2024-02-28T03:32:02;16.38;;;8.70;;
35777;SDS011;21899;42.662;23.316;2024-02-28T03:34:29;20.45;;;8.85;;
35777;SDS011;21899;42.662;23.316;2024-02-28T03:36:54;20.05;;;10.68;;
35777;SDS011;21899;42.662;23.316;2024-02-28T03:39:20;16.75;;;8.85;;
35777;SDS011;21899;42.662;23.316;2024-02-28T03:41:45;24.42;;;11.25;;
35777;SDS011;21899;42.662;23.316;2024-02-28T03:44:11;18.17;;;8.85;;
35777;SDS011;21899;42.662;23.316;2024-02-28T03:46:36;20.50;;;10.25;;
35777;SDS011;21899;42.662;23.316;2024-02-28T03:49:02;21.95;;;10.30;;
35777;SDS011;21899;42.662;23.316;2024-02-28T03:51:27;20.60;;;9.18;;
35777;SDS011;21899;42.662;23.316;2024-02-28T03:53:54;17.50;;;10.75;;
35777;SDS011;21899;42.662;23.316;2024-02-28T03:56:23;24.45;;;10.57;;
35777;SDS011;21899;42.662;23.316;2024-02-28T03:58:52;25.88;;;11.63;;
35777;SDS011;21899;42.662;23.316;2024-02-28T04:01:19;24.33;;;11.88;;
35777;SDS011;21899;42.662;23.316;2024-02-28T04:03:44;27.40;;;13.20;;
35777;SDS011;21899;42.662;23.316;2024-02-28T04:06:10;22.42;;;11.23;;
35777;SDS011;21899;42.662;23.316;2024-02-28T04:08:36;25.98;;;12.23;;
35777;SDS011;21899;42.662;23.316;2024-02-28T04:11:02;34.75;;;13.50;;
35777;SDS011;21899;42.662;23.316;2024-02-28T04:13:27;26.58;;;11.52;;
35777;SDS011;21899;42.662;23.316;2024-02-28T04:15:53;25.75;;;12.60;;
35777;SDS011;21899;42.662;23.316;2024-02-28T04:18:19;26.98;;;11.10;;
35777;SDS011;21899;42.662;23.316;2024-02-28T04:20:44;23.20;;;10.70;;
35777;SDS011;21899;42.662;23.316;2024-02-28T04:23:10;19.98;;;11.70;;
35777;SDS011;21899;42.662;23.316;2024-02-28T04:25:35;18.27;;;10.57;;
35777;SDS011;21899;42.662;23.316;2024-02-28T04:28:02;20.27;;;10.02;;
35777;SDS011;21899;42.662;23.316;2024-02-28T04:30:28;18.60;;;9.60;;
35777;SDS011;21899;42.662;23.316;2024-02-28T04:32:54;17.10;;;8.85;;
35777;SDS011;21899;42.662;23.316;2024-02-28T04:35:19;27.98;;;11.10;;
35777;SDS011;21899;42.662;23.316;2024-02-28T04:37:45;18.70;;;9.25;;
35777;SDS011;21899;42.662;23.316;2024-02-28T04:40:11;21.13;;;10.70;;
35777;SDS011;21899;42.662;23.316;2024-02-28T04:42:38;24.02;;;10.93;;
35777;SDS011;21899;42.662;23.316;2024-02-28T04:45:04;20.23;;;10.02;;
35777;SDS011;21899;42.662;23.316;2024-02-28T04:47:30;23.02;;;10.85;;
35777;SDS011;21899;42.662;23.316;2024-02-28T04:49:55;26.00;;;11.35;;
35777;SDS011;21899;42.662;23.316;2024-02-28T04:52:22;27.42;;;12.23;;
35777;SDS011;21899;42.662;23.316;2024-02-28T04:54:47;24.63;;;11.65;;
35777;SDS011;21899;42.662;23.316;2024-02-28T04:57:13;26.40;;;11.15;;
35777;SDS011;21899;42.662;23.316;2024-02-28T04:59:39;22.35;;;10.93;;
35777;SDS011;21899;42.662;23.316;2024-02-28T05:02:04;27.17;;;11.75;;
35777;SDS011;21899;42.662;23.316;2024-02-28T05:04:30;23.98;;;12.18;;
35777;SDS011;21899;42.662;23.316;2024-02-28T05:06:55;21.85;;;11.63;;
35777;SDS011;21899;42.662;23.316;2024-02-28T05:09:21;22.17;;;10.98;;
35777;SDS011;21899;42.662;23.316;2024-02-28T05:11:46;23.15;;;12.30;;
35777;SDS011;21899;42.662;23.316;2024-02-28T05:14:12;23.50;;;11.23;;
35777;SDS011;21899;42.662;23.316;2024-02-28T05:16:37;22.58;;;12.60;;
35777;SDS011;21899;42.662;23.316;2024-02-28T05:19:03;25.45;;;13.65;;
35777;SDS011;21899;42.662;23.316;2024-02-28T05:21:29;30.50;;;12.70;;
35777;SDS011;21899;42.662;23.316;2024-02-28T05:23:55;27.05;;;13.02;;
35777;SDS011;21899;42.662;23.316;2024-02-28T05:26:20;31.23;;;14.38;;
35777;SDS011;21899;42.662;23.316;2024-02-28T05:28:45;34.03;;;17.08;;
35777;SDS011;21899;42.662;23.316;2024-02-28T05:31:21;30.80;;;16.02;;
35777;SDS011;21899;42.662;23.316;2024-02-28T05:33:48;34.00;;;14.07;;
35777;SDS011;21899;42.662;23.316;2024-02-28T05:36:15;29.85;;;14.88;;
35777;SDS011;21899;42.662;23.316;2024-02-28T05:38:41;30.70;;;15.25;;
35777;SDS011;21899;42.662;23.316;2024-02-28T05:41:07;27.50;;;13.98;;
35777;SDS011;21899;42.662;23.316;2024-02-28T05:43:32;34.75;;;14.40;;
35777;SDS011;21899;42.662;23.316;2024-02-28T05:45:58;33.30;;;15.30;;
35777;SDS011;21899;42.662;23.316;2024-02-28T05:48:23;28.50;;;15.15;;
35777;SDS011;21899;42.662;23.316;2024-02-28T05:50:49;28.58;;;14.07;;
35777;SDS011;21899;42.662;23.316;2024-02-28T05:53:14;28.20;;;14.45;;
35777;SDS011;21899;42.662;23.316;2024-02-28T05:55:40;30.60;;;13.73;;
35777;SDS011;21899;42.662;23.316;2024-02-28T05:58:05;25.65;;;14.00;;
35777;SDS011;21899;42.662;23.316;2024-02-28T06:00:31;26.30;;;13.18;;
35777;SDS011;21899;42.662;23.316;2024-02-28T06:02:56;28.25;;;15.18;;
35777;SDS011;21899;42.662;23.316;2024-02-28T06:05:21;32.47;;;15.18;;
35777;SDS011;21899;42.662;23.316;2024-02-28T06:07:47;29.05;;;14.27;;
35777;SDS011;21899;42.662;23.316;2024-02-28T06:10:13;28.92;;;15.88;;
35777;SDS011;21899;42.662;23.316;2024-02-28T06:12:39;28.25;;;14.32;;
35777;SDS011;21899;42.662;23.316;2024-02-28T06:15:05;28.77;;;15.63;;
35777;SDS011;21899;42.662;23.316;2024-02-28T06:17:31;31.60;;;15.63;;
35777;SDS011;21899;42.662;23.316;2024-02-28T06:19:56;31.63;;;15.35;;
35777;SDS011;21899;42.662;23.316;2024-02-28T06:22:22;30.48;;;16.10;;
35777;SDS011;21899;42.662;23.316;2024-02-28T06:24:47;28.77;;;14.77;;
35777;SDS011;21899;42.662;23.316;2024-02-28T06:27:13;28.95;;;15.23;;
35777;SDS011;21899;42.662;23.316;2024-02-28T06:29:39;26.83;;;14.77;;
35777;SDS011;21899;42.662;23.316;2024-02-28T06:32:06;32.63;;;15.88;;
35777;SDS011;21899;42.662;23.316;2024-02-28T06:34:31;29.65;;;16.30;;
35777;SDS011;21899;42.662;23.316;2024-02-28T06:36:57;26.33;;;15.85;;
35777;SDS011;21899;42.662;23.316;2024-02-28T06:39:22;28.63;;;15.80;;
35777;SDS011;21899;42.662;23.316;2024-02-28T06:41:48;31.25;;;15.50;;
35777;SDS011;21899;42.662;23.316;2024-02-28T06:44:20;30.27;;;17.73;;
35777;SDS011;21899;42.662;23.316;2024-02-28T06:46:45;29.35;;;15.38;;
35777;SDS011;21899;42.662;23.316;2024-02-28T06:49:11;33.75;;;14.98;;
35777;SDS011;21899;42.662;23.316;2024-02-28T06:51:36;25.38;;;14.25;;
35777;SDS011;21899;42.662;23.316;2024-02-28T06:54:02;26.33;;;15.75;;
35777;SDS011;21899;42.662;23.316;2024-02-28T06:56:28;31.35;;;16.48;;
35777;SDS011;21899;42.662;23.316;2024-02-28T06:58:55;34.03;;;15.85;;
35777;SDS011;21899;42.662;23.316;2024-02-28T07:01:20;33.88;;;16.00;;
35777;SDS011;21899;42.662;23.316;2024-02-28T07:03:46;27.83;;;15.00;;
35777;SDS011;21899;42.662;23.316;2024-02-28T07:06:11;33.22;;;16.02;;
35777;SDS011;21899;42.662;23.316;2024-02-28T07:08:37;31.35;;;13.45;;
35777;SDS011;21899;42.662;23.316;2024-02-28T07:11:03;32.10;;;14.25;;
35777;SDS011;21899;42.662;23.316;2024-02-28T07:13:28;32.60;;;16.25;;
35777;SDS011;21899;42.662;23.316;2024-02-28T07:15:54;28.52;;;14.40;;
35777;SDS011;21899;42.662;23.316;2024-02-28T07:18:20;31.35;;;13.98;;
35777;SDS011;21899;42.662;23.316;2024-02-28T07:20:45;32.30;;;14.50;;
35777;SDS011;21899;42.662;23.316;2024-02-28T07:23:11;24.40;;;12.63;;
35777;SDS011;21899;42.662;23.316;2024-02-28T07:25:37;24.73;;;14.23;;
35777;SDS011;21899;42.662;23.316;2024-02-28T07:28:02;29.60;;;14.55;;
35777;SDS011;21899;42.662;23.316;2024-02-28T07:30:28;28.30;;;13.52;;
35777;SDS011;21899;42.662;23.316;2024-02-28T07:32:54;31.30;;;13.80;;
35777;SDS011;21899;42.662;23.316;2024-02-28T07:35:20;34.83;;;14.00;;
35777;SDS011;21899;42.662;23.316;2024-02-28T07:37:46;24.77;;;13.45;;
35777;SDS011;21899;42.662;23.316;2024-02-28T07:40:11;31.30;;;14.15;;
35777;SDS011;21899;42.662;23.316;2024-02-28T07:42:38;24.58;;;12.95;;
35777;SDS011;21899;42.662;23.316;2024-02-28T07:45:03;25.17;;;13.70;;
35777;SDS011;21899;42.662;23.316;2024-02-28T07:47:29;26.77;;;14.55;;
35777;SDS011;21899;42.662;23.316;2024-02-28T07:49:56;30.25;;;14.48;;
35777;SDS011;21899;42.662;23.316;2024-02-28T07:52:21;29.15;;;14.07;;
35777;SDS011;21899;42.662;23.316;2024-02-28T07:54:47;23.80;;;13.95;;
35777;SDS011;21899;42.662;23.316;2024-02-28T07:57:12;29.88;;;13.18;;
35777;SDS011;21899;42.662;23.316;2024-02-28T07:59:43;29.45;;;14.45;;
35777;SDS011;21899;42.662;23.316;2024-02-28T08:02:08;28.70;;;13.32;;
35777;SDS011;21899;42.662;23.316;2024-02-28T08:04:36;23.98;;;13.25;;
35777;SDS011;21899;42.662;23.316;2024-02-28T08:07:02;26.42;;;13.38;;
35777;SDS011;21899;42.662;23.316;2024-02-28T08:09:28;29.30;;;12.48;;
35777;SDS011;21899;42.662;23.316;2024-02-28T08:11:54;22.67;;;12.20;;
35777;SDS011;21899;42.662;23.316;2024-02-28T08:14:20;26.42;;;13.85;;
35777;SDS011;21899;42.662;23.316;2024-02-28T08:16:45;24.30;;;12.98;;
35777;SDS011;21899;42.662;23.316;2024-02-28T08:19:11;26.52;;;12.05;;
35777;SDS011;21899;42.662;23.316;2024-02-28T08:21:36;25.27;;;12.65;;
35777;SDS011;21899;42.662;23.316;2024-02-28T08:24:02;24.92;;;10.90;;
35777;SDS011;21899;42.662;23.316;2024-02-28T08:26:30;25.55;;;12.38;;
35777;SDS011;21899;42.662;23.316;2024-02-28T08:28:56;25.25;;;12.38;;
35777;SDS011;21899;42.662;23.316;2024-02-28T08:31:22;21.92;;;10.85;;
35777;SDS011;21899;42.662;23.316;2024-02-28T08:33:47;24.63;;;11.20;;
35777;SDS011;21899;42.662;23.316;2024-02-28T08:36:13;23.17;;;12.38;;
35777;SDS011;21899;42.662;23.316;2024-02-28T08:38:40;24.45;;;12.25;;
35777;SDS011;21899;42.662;23.316;2024-02-28T08:41:05;21.23;;;10.43;;
35777;SDS011;21899;42.662;23.316;2024-02-28T08:43:32;26.17;;;12.05;;
35777;SDS011;21899;42.662;23.316;2024-02-28T08:46:07;23.20;;;13.55;;
35777;SDS011;21899;42.662;23.316;2024-02-28T08:48:33;24.40;;;12.43;;
35777;SDS011;21899;42.662;23.316;2024-02-28T08:50:59;27.23;;;13.10;;
35777;SDS011;21899;42.662;23.316;2024-02-28T08:53:24;24.88;;;14.05;;
35777;SDS011;21899;42.662;23.316;2024-02-28T08:55:50;20.60;;;12.05;;
35777;SDS011;21899;42.662;23.316;2024-02-28T08:58:15;24.83;;;13.43;;
35777;SDS011;21899;42.662;23.316;2024-02-28T09:00:41;23.48;;;12.73;;
35777;SDS011;21899;42.662;23.316;2024-02-28T09:03:07;27.20;;;12.57;;
35777;SDS011;21899;42.662;23.316;2024-02-28T09:05:32;28.73;;;13.15;;
35777;SDS011;21899;42.662;23.316;2024-02-28T09:07:58;28.02;;;13.70;;
35777;SDS011;21899;42.662;23.316;2024-02-28T09:10:23;29.33;;;13.48;;
35777;SDS011;21899;42.662;23.316;2024-02-28T09:12:52;26.80;;;13.18;;
35777;SDS011;21899;42.662;23.316;2024-02-28T09:15:18;25.23;;;13.55;;
35777;SDS011;21899;42.662;23.316;2024-02-28T09:17:44;29.67;;;14.05;;
35777;SDS011;21899;42.662;23.316;2024-02-28T09:20:10;25.95;;;13.00;;
35777;SDS011;21899;42.662;23.316;2024-02-28T09:22:37;22.70;;;12.55;;
35777;SDS011;21899;42.662;23.316;2024-02-28T09:25:03;29.95;;;13.32;;
35777;SDS011;21899;42.662;23.316;2024-02-28T09:27:29;28.30;;;13.93;;
35777;SDS011;21899;42.662;23.316;2024-02-28T09:29:55;30.00;;;14.77;;
35777;SDS011;21899;42.662;23.316;2024-02-28T09:32:20;25.58;;;14.40;;
35777;SDS011;21899;42.662;23.316;2024-02-28T09:34:46;26.25;;;13.02;;
35777;SDS011;21899;42.662;23.316;2024-02-28T09:37:13;28.27;;;14.82;;
35777;SDS011;21899;42.662;23.316;2024-02-28T09:39:39;29.98;;;13.80;;
35777;SDS011;21899;42.662;23.316;2024-02-28T09:42:09;26.83;;;14.57;;
35777;SDS011;21899;42.662;23.316;2024-02-28T09:44:35;26.60;;;13.13;;
35777;SDS011;21899;42.662;23.316;2024-02-28T09:47:02;32.17;;;14.70;;
35777;SDS011;21899;42.662;23.316;2024-02-28T09:49:28;27.02;;;13.73;;
35777;SDS011;21899;42.662;23.316;2024-02-28T09:51:56;27.67;;;13.65;;
35777;SDS011;21899;42.662;23.316;2024-02-28T09:54:23;26.27;;;13.02;;
35777;SDS011;21899;42.662;23.316;2024-02-28T09:56:48;25.33;;;11.88;;
35777;SDS011;21899;42.662;23.316;2024-02-28T09:59:15;26.33;;;12.73;;
35777;SDS011;21899;42.662;23.316;2024-02-28T10:01:43;26.75;;;13.48;;
35777;SDS011;21899;42.662;23.316;2024-02-28T10:04:11;29.35;;;13.20;;
35777;SDS011;21899;42.662;23.316;2024-02-28T10:06:41;27.83;;;13.50;;
35777;SDS011;21899;42.662;23.316;2024-02-28T10:09:06;26.42;;;15.05;;
35777;SDS011;21899;42.662;23.316;2024-02-28T10:11:32;26.17;;;13.07;;
35777;SDS011;21899;42.662;23.316;2024-02-28T10:14:00;26.35;;;13.48;;
35777;SDS011;21899;42.662;23.316;2024-02-28T10:16:26;29.42;;;14.68;;
35777;SDS011;21899;42.662;23.316;2024-02-28T10:18:52;27.33;;;14.55;;
35777;SDS011;21899;42.662;23.316;2024-02-28T10:21:18;25.52;;;14.02;;
35777;SDS011;21899;42.662;23.316;2024-02-28T10:23:44;25.55;;;12.93;;
35777;SDS011;21899;42.662;23.316;2024-02-28T10:26:10;28.45;;;12.48;;
35777;SDS011;21899;42.662;23.316;2024-02-28T10:28:37;28.55;;;13.52;;
35777;SDS011;21899;42.662;23.316;2024-02-28T10:31:05;26.40;;;13.18;;
35777;SDS011;21899;42.662;23.316;2024-02-28T10:33:31;25.25;;;12.05;;
35777;SDS011;21899;42.662;23.316;2024-02-28T10:35:58;27.63;;;12.32;;
35777;SDS011;21899;42.662;23.316;2024-02-28T10:38:25;36.90;;;13.10;;
35777;SDS011;21899;42.662;23.316;2024-02-28T10:40:52;23.52;;;13.05;;
35777;SDS011;21899;42.662;23.316;2024-02-28T10:43:19;23.80;;;12.25;;
35777;SDS011;21899;42.662;23.316;2024-02-28T10:45:45;21.88;;;11.75;;
35777;SDS011;21899;42.662;23.316;2024-02-28T10:48:11;18.25;;;10.55;;
35777;SDS011;21899;42.662;23.316;2024-02-28T10:50:39;21.33;;;10.25;;
35777;SDS011;21899;42.662;23.316;2024-02-28T10:53:05;21.15;;;10.30;;
35777;SDS011;21899;42.662;23.316;2024-02-28T10:55:39;17.90;;;10.30;;
35777;SDS011;21899;42.662;23.316;2024-02-28T10:58:09;14.68;;;7.95;;
35777;SDS011;21899;42.662;23.316;2024-02-28T11:00:39;18.25;;;10.15;;
35777;SDS011;21899;42.662;23.316;2024-02-28T11:03:11;21.23;;;8.93;;
35777;SDS011;21899;42.662;23.316;2024-02-28T11:05:41;16.70;;;8.40;;
35777;SDS011;21899;42.662;23.316;2024-02-28T11:10:47;17.48;;;8.02;;
35777;SDS011;21899;42.662;23.316;2024-02-28T11:13:26;16.33;;;8.57;;
35777;SDS011;21899;42.662;23.316;2024-02-28T11:15:52;19.92;;;8.43;;
35777;SDS011;21899;42.662;23.316;2024-02-28T11:18:20;16.42;;;7.47;;
35777;SDS011;21899;42.662;23.316;2024-02-28T11:20:46;15.13;;;7.22;;
35777;SDS011;21899;42.662;23.316;2024-02-28T11:23:13;12.68;;;8.38;;
35777;SDS011;21899;42.662;23.316;2024-02-28T11:25:39;25.52;;;12.85;;
35777;SDS011;21899;42.662;23.316;2024-02-28T11:28:05;11.10;;;5.57;;
35777;SDS011;21899;42.662;23.316;2024-02-28T11:30:32;13.73;;;6.72;;
35777;SDS011;21899;42.662;23.316;2024-02-28T11:32:57;12.88;;;6.15;;
35777;SDS011;21899;42.662;23.316;2024-02-28T11:35:24;13.18;;;6.05;;
35777;SDS011;21899;42.662;23.316;2024-02-28T11:37:56;10.15;;;5.75;;
35777;SDS011;21899;42.662;23.316;2024-02-28T11:40:24;9.80;;;5.47;;
35777;SDS011;21899;42.662;23.316;2024-02-28T11:42:52;12.52;;;6.70;;
35777;SDS011;21899;42.662;23.316;2024-02-28T11:45:19;10.57;;;5.45;;
35777;SDS011;21899;42.662;23.316;2024-02-28T11:47:45;3.67;;;1.95;;
35777;SDS011;21899;42.662;23.316;2024-02-28T11:50:12;7.72;;;4.32;;
35777;SDS011;21899;42.662;23.316;2024-02-28T11:52:39;9.25;;;4.75;;
35777;SDS011;21899;42.662;23.316;2024-02-28T11:55:05;13.38;;;5.32;;
35777;SDS011;21899;42.662;23.316;2024-02-28T11:57:31;11.27;;;4.95;;
35777;SDS011;21899;42.662;23.316;2024-02-28T12:00:02;10.60;;;5.22;;
35777;SDS011;21899;42.662;23.316;2024-02-28T12:02:32;10.90;;;4.65;;
35777;SDS011;21899;42.662;23.316;2024-02-28T12:05:01;11.45;;;5.60;;
35777;SDS011;21899;42.662;23.316;2024-02-28T12:07:27;14.32;;;4.97;;
35777;SDS011;21899;42.662;23.316;2024-02-28T12:09:53;9.70;;;5.32;;
35777;SDS011;21899;42.662;23.316;2024-02-28T12:12:19;8.48;;;5.82;;
35777;SDS011;21899;42.662;23.316;2024-02-28T12:14:46;7.95;;;3.78;;
35777;SDS011;21899;42.662;23.316;2024-02-28T12:17:13;6.38;;;3.08;;
35777;SDS011;21899;42.662;23.316;2024-02-28T12:19:40;7.13;;;3.72;;
35777;SDS011;21899;42.662;23.316;2024-02-28T12:22:05;8.10;;;3.55;;
35777;SDS011;21899;42.662;23.316;2024-02-28T12:24:31;7.50;;;4.88;;
35777;SDS011;21899;42.662;23.316;2024-02-28T12:26:57;12.90;;;5.82;;
35777;SDS011;21899;42.662;23.316;2024-02-28T12:29:22;9.55;;;5.35;;
35777;SDS011;21899;42.662;23.316;2024-02-28T12:31:48;9.20;;;5.28;;
35777;SDS011;21899;42.662;23.316;2024-02-28T12:34:13;8.15;;;5.50;;
35777;SDS011;21899;42.662;23.316;2024-02-28T12:36:42;10.63;;;4.72;;
35777;SDS011;21899;42.662;23.316;2024-02-28T12:39:09;8.82;;;5.75;;
35777;SDS011;21899;42.662;23.316;2024-02-28T12:41:37;11.05;;;5.90;;
35777;SDS011;21899;42.662;23.316;2024-02-28T12:44:06;12.52;;;6.55;;
35777;SDS011;21899;42.662;23.316;2024-02-28T12:46:35;8.70;;;5.32;;
35777;SDS011;21899;42.662;23.316;2024-02-28T12:49:01;10.85;;;5.90;;
35777;SDS011;21899;42.662;23.316;2024-02-28T12:54:06;13.77;;;6.18;;
35777;SDS011;21899;42.662;23.316;2024-02-28T12:56:32;10.18;;;6.80;;
35777;SDS011;21899;42.662;23.316;2024-02-28T12:58:59;10.90;;;6.43;;
35777;SDS011;21899;42.662;23.316;2024-02-28T13:01:25;13.70;;;6.85;;
35777;SDS011;21899;42.662;23.316;2024-02-28T13:03:50;16.60;;;6.90;;
35777;SDS011;21899;42.662;23.316;2024-02-28T13:06:16;13.27;;;5.88;;
35777;SDS011;21899;42.662;23.316;2024-02-28T13:08:41;10.48;;;6.85;;
35777;SDS011;21899;42.662;23.316;2024-02-28T13:11:07;19.02;;;5.90;;
35777;SDS011;21899;42.662;23.316;2024-02-28T13:13:33;15.80;;;6.35;;
35777;SDS011;21899;42.662;23.316;2024-02-28T13:15:58;12.05;;;6.53;;
35777;SDS011;21899;42.662;23.316;2024-02-28T13:18:24;15.00;;;6.70;;
35777;SDS011;21899;42.662;23.316;2024-02-28T13:20:50;13.90;;;7.80;;
35777;SDS011;21899;42.662;23.316;2024-02-28T13:23:17;13.95;;;6.90;;
35777;SDS011;21899;42.662;23.316;2024-02-28T13:25:43;13.60;;;7.07;;
35777;SDS011;21899;42.662;23.316;2024-02-28T13:28:09;12.52;;;6.90;;
35777;SDS011;21899;42.662;23.316;2024-02-28T13:30:34;11.00;;;5.22;;
35777;SDS011;21899;42.662;23.316;2024-02-28T13:33:01;8.55;;;4.70;;
35777;SDS011;21899;42.662;23.316;2024-02-28T13:35:28;12.75;;;5.80;;
35777;SDS011;21899;42.662;23.316;2024-02-28T13:37:53;10.15;;;5.10;;
35777;SDS011;21899;42.662;23.316;2024-02-28T13:40:19;10.45;;;5.30;;
35777;SDS011;21899;42.662;23.316;2024-02-28T13:42:45;11.13;;;5.50;;
35777;SDS011;21899;42.662;23.316;2024-02-28T13:45:10;12.85;;;5.38;;
35777;SDS011;21899;42.662;23.316;2024-02-28T13:47:36;12.70;;;5.00;;
35777;SDS011;21899;42.662;23.316;2024-02-28T13:50:02;11.13;;;5.20;;
35777;SDS011;21899;42.662;23.316;2024-02-28T13:52:28;9.23;;;4.65;;
35777;SDS011;21899;42.662;23.316;2024-02-28T13:54:54;10.52;;;5.10;;
35777;SDS011;21899;42.662;23.316;2024-02-28T13:57:19;11.63;;;5.00;;
35777;SDS011;21899;42.662;23.316;2024-02-28T13:59:45;8.45;;;5.20;;
35777;SDS011;21899;42.662;23.316;2024-02-28T14:02:14;11.20;;;4.38;;
35777;SDS011;21899;42.662;23.316;2024-02-28T14:04:40;11.82;;;4.75;;
35777;SDS011;21899;42.662;23.316;2024-02-28T14:07:07;7.55;;;3.88;;
35777;SDS011;21899;42.662;23.316;2024-02-28T14:09:34;9.38;;;5.10;;
35777;SDS011;21899;42.662;23.316;2024-02-28T14:11:59;9.95;;;5.32;;